1854 NOT_NAMED (1854325S10073)


IBTrACS version v04r00. Visit IBTrACS website for data access.
Please direct all questions to the IBTrACS Q and A forum

Storm track - Intensity - Wind Radii - Intensity Data - Source Data - All data

Summary Information

Storm ID 1854325S10073
Start Nov 21 06Z
End Nov 27 06Z
ATCF IDs
Track status Best track data.

Storm track plot

Map of storm track

Intensity plots

No Intensity information for this storm


Radial wind information

No radial wind information for this storm


Position and Intensity Table

BASIN ISO_TIME_________ NATURE LAT LON
degrees north degrees east
SI 1854-11-21 06:00:00 NR -10.10 73.10
SI 09:00:00 NR -10.22 73.02
SI 12:00:00 NR -10.35 72.93
SI 15:00:00 NR -10.49 72.83
SI 18:00:00 NR -10.67 72.72
SI 21:00:00 NR -10.87 72.58
SI 1854-11-22 00:00:00 NR -11.13 72.42
SI 03:00:00 NR -11.43 72.23
SI 06:00:00 NR -11.80 72.00
SI 09:00:00 NR -12.23 71.73
SI 12:00:00 NR -12.72 71.42
SI 15:00:00 NR -13.26 71.10
SI 18:00:00 NR -13.81 70.75
SI 21:00:00 NR -14.38 70.40
SI 1854-11-23 00:00:00 NR -14.94 70.05
SI 03:00:00 NR -15.49 69.71
SI 06:00:00 NR -16.00 69.40
SI 09:00:00 NR -16.44 69.13
SI 12:00:00 NR -16.85 68.89
SI 15:00:00 NR -17.24 68.66
SI 18:00:00 NR -17.61 68.44
SI 21:00:00 NR -17.96 68.24
SI 1854-11-24 00:00:00 NR -18.29 68.05
SI 03:00:00 NR -18.60 67.87
SI 06:00:00 NR -18.90 67.70
SI 09:00:00 NR -19.20 67.51
SI 12:00:00 NR -19.47 67.33
SI 15:00:00 NR -19.73 67.16
SI 18:00:00 NR -19.98 67.00
SI 21:00:00 NR -20.22 66.85
SI 1854-11-25 00:00:00 NR -20.45 66.72
SI 03:00:00 NR -20.68 66.60
SI 06:00:00 NR -20.90 66.50
SI 09:00:00 NR -21.14 66.40
SI 12:00:00 NR -21.37 66.32
SI 15:00:00 NR -21.60 66.25
SI 18:00:00 NR -21.83 66.20
SI 21:00:00 NR -22.05 66.16
SI 1854-11-26 00:00:00 NR -22.27 66.13
SI 03:00:00 NR -22.49 66.11
SI 06:00:00 NR -22.70 66.10
SI 09:00:00 NR -22.91 66.10
SI 12:00:00 NR -23.11 66.10
SI 15:00:00 NR -23.32 66.11
SI 18:00:00 NR -23.52 66.12
SI 21:00:00 NR -23.71 66.14
SI 1854-11-27 00:00:00 NR -23.91 66.16
SI 03:00:00 NR -24.10 66.18
SI 06:00:00 NR -24.30 66.20

Source Information

Agency Information
USA
TOKYO
CMA
HKO
NEWDELHI
REUNION WMO-Best-Tracks.txt:Line=78:xxxx854012
BOM
NADI
WELLINGTON
DS824
TD9636
TD9635
NEUMANN
MLC

All available IBTrACS Data

SEASON BASIN SUBBASIN ISO_TIME_________ NATURE LAT LON WMO AGENCY DIST2LAND LANDFALL IFLAG USA SSHS REUNION LAT REUNION LON REUNION TYPE REUNION TNUM STORM SPEED STORM DIR
Year degrees north degrees east km km 1 degrees north degrees east 1 kts degrees
1855 SI MM 1854-11-21 06:00:00 NR -10.10 73.10 reunion 1972 1972 _____O________ -1 -10.10 73.10 99 9.90 3 213
1855 SI MM 09:00:00 NR -10.22 73.02 1979 1963 _____P________ -1 -10.22 73.02 99 3 214
1855 SI MM 12:00:00 NR -10.35 72.93 1963 1941 _____P________ -1 -10.35 72.93 99 3 213
1855 SI MM 15:00:00 NR -10.49 72.83 1941 1920 _____P________ -1 -10.49 72.83 99 4 213
1855 SI MM 18:00:00 NR -10.67 72.72 1920 1898 _____P________ -1 -10.67 72.72 99 5 213
1855 SI MM 21:00:00 NR -10.87 72.58 1898 1867 _____P________ -1 -10.87 72.58 99 5 212
1855 SI MM 1854-11-22 00:00:00 NR -11.13 72.42 1867 1830 _____P________ -1 -11.13 72.42 99 7 212
1855 SI MM 03:00:00 NR -11.43 72.23 1830 1787 _____P________ -1 -11.43 72.23 99 8 212
1855 SI MM 06:00:00 NR -11.80 72.00 reunion 1787 1736 _____O________ -1 -11.80 72.00 99 9.90 9 211
1855 SI MM 09:00:00 NR -12.23 71.73 1736 1678 _____P________ -1 -12.23 71.73 99 11 211
1855 SI MM 12:00:00 NR -12.72 71.42 1678 1622 _____P________ -1 -12.72 71.42 99 12 211
1855 SI MM 15:00:00 NR -13.26 71.10 1616 1560 _____P________ -1 -13.26 71.10 99 13 211
1855 SI MM 18:00:00 NR -13.81 70.75 1560 1496 _____P________ -1 -13.81 70.75 99 13 211
1855 SI MM 21:00:00 NR -14.38 70.40 1490 1436 _____P________ -1 -14.38 70.40 99 13 211
1855 SI MM 1854-11-23 00:00:00 NR -14.94 70.05 1426 1368 _____P________ -1 -14.94 70.05 99 13 211
1855 SI MM 03:00:00 NR -15.49 69.71 1368 1316 _____P________ -1 -15.49 69.71 99 12 211
1855 SI MM 06:00:00 NR -16.00 69.40 reunion 1316 1269 _____O________ -1 -16.00 69.40 99 9.90 11 210
1855 SI MM 09:00:00 NR -16.44 69.13 1269 1233 _____P________ -1 -16.44 69.13 99 10 210
1855 SI MM 12:00:00 NR -16.85 68.89 1229 1198 _____P________ -1 -16.85 68.89 99 9 210
1855 SI MM 15:00:00 NR -17.24 68.66 1198 1164 _____P________ -1 -17.24 68.66 99 9 209
1855 SI MM 18:00:00 NR -17.61 68.44 1154 1135 _____P________ -1 -17.61 68.44 99 8 209
1855 SI MM 21:00:00 NR -17.96 68.24 1122 1103 _____P________ -1 -17.96 68.24 99 8 209
1855 SI MM 1854-11-24 00:00:00 NR -18.29 68.05 1103 1075 _____P________ -1 -18.29 68.05 99 7 209
1855 SI MM 03:00:00 NR -18.60 67.87 1075 1048 _____P________ -1 -18.60 67.87 99 7 209
1855 SI MM 06:00:00 NR -18.90 67.70 reunion 1048 1022 _____O________ -1 -18.90 67.70 99 9.90 7 210
1855 SI MM 09:00:00 NR -19.20 67.51 1022 997 _____P________ -1 -19.20 67.51 99 7 211
1855 SI MM 12:00:00 NR -19.47 67.33 997 984 _____P________ -1 -19.47 67.33 99 6 212
1855 SI MM 15:00:00 NR -19.73 67.16 984 960 _____P________ -1 -19.73 67.16 99 6 211
1855 SI MM 18:00:00 NR -19.98 67.00 960 949 _____P________ -1 -19.98 67.00 99 6 211
1855 SI MM 21:00:00 NR -20.22 66.85 949 927 _____P________ -1 -20.22 66.85 99 5 209
1855 SI MM 1854-11-25 00:00:00 NR -20.45 66.72 927 917 _____P________ -1 -20.45 66.72 99 5 207
1855 SI MM 03:00:00 NR -20.68 66.60 917 907 _____P________ -1 -20.68 66.60 99 5 205
1855 SI MM 06:00:00 NR -20.90 66.50 reunion 907 898 _____O________ -1 -20.90 66.50 99 9.90 5 202
1855 SI MM 09:00:00 NR -21.14 66.40 898 890 _____P________ -1 -21.14 66.40 99 5 199
1855 SI MM 12:00:00 NR -21.37 66.32 891 891 _____P________ -1 -21.37 66.32 99 5 196
1855 SI MM 15:00:00 NR -21.60 66.25 894 884 _____P________ -1 -21.60 66.25 99 5 194
1855 SI MM 18:00:00 NR -21.83 66.20 887 887 _____P________ -1 -21.83 66.20 99 5 191
1855 SI MM 21:00:00 NR -22.05 66.16 893 883 _____P________ -1 -22.05 66.16 99 5 189
1855 SI MM 1854-11-26 00:00:00 NR -22.27 66.13 888 888 _____P________ -1 -22.27 66.13 99 4 185
1855 SI MM 03:00:00 NR -22.49 66.11 893 893 _____P________ -1 -22.49 66.11 99 4 186
1855 SI MM 06:00:00 NR -22.70 66.10 reunion 899 899 _____O________ -1 -22.70 66.10 99 9.90 4 182
1855 SI MM 09:00:00 NR -22.91 66.10 905 905 _____P________ -1 -22.91 66.10 99 4 0
1855 SI MM 12:00:00 NR -23.11 66.10 912 912 _____P________ -1 -23.11 66.10 99 4 178
1855 SI MM 15:00:00 NR -23.32 66.11 919 919 _____P________ -1 -23.32 66.11 99 4 0
1855 SI MM 18:00:00 NR -23.52 66.12 927 927 _____P________ -1 -23.52 66.12 99 4 0
1855 SI MM 21:00:00 NR -23.71 66.14 935 935 _____P________ -1 -23.71 66.14 99 4 175
1855 SI MM 1854-11-27 00:00:00 NR -23.91 66.16 953 953 _____P________ -1 -23.91 66.16 99 4 175
1855 SI MM 03:00:00 NR -24.10 66.18 962 962 _____P________ -1 -24.10 66.18 99 4 176
1855 SI MM 06:00:00 NR -24.30 66.20 reunion 971 _____O________ -1 -24.30 66.20 99 9.90 4 0